Startpagina
METAR-TAF:

METAR-TAF

Vliegvelden :

Tokio-Haneda, Japan

Luchthaven Haneda

breedte: 35-33N, lengte: 139-47E, hoogte: 5 m

Actueel weer

Dit bericht is 27 minuten geleden gemaakt, om 18:00 UTC
Wind 3 kt uit het noordwesten
Temperatuur 5°C
Vochtigheid 70%
Druk 1023 hPa
Zicht 10 km of meer
Weinig wolken op 1500 ft

METAR: RJTT 231800Z 32003KT 9999 FEW015 05/M00 Q1023 NOSIG RMK 1CU015 A3021

Tijdstip: 03:27 (18:27 UTC)

Verwachting

Dit bericht is 1 uur en het 15 minuten geleden gemaakt, om 17:12 UTC
Verwachting geldig van 23 om 18 UTC tot 25 om 00 UTC
Wind 6 kt uit het westnoordwesten
Zicht 10 km of meer
Weinig wolken op 3000 ft
Wijzigt naar
van 23 om 22 UTC tot 24 om 00 UTC
Wind 6 kt uit het oostzuidoosten
Wijzigt naar
van 24 om 00 UTC tot 24 om 02 UTC
Wind 14 kt uit het zuiden
Wijzigt naar
van 24 om 09 UTC tot 24 om 12 UTC
Wind 10 kt uit het noorden

TAF: RJTT 231712Z 2318/2500 30006KT 9999 FEW030 BECMG 2322/2400 12006KT BECMG 2400/2402 19014KT BECMG 2409/2412 36010KT

Waarnemingen en weersverwachtingen van meer dan 4000 vliegvelden (METAR en TAF).

De beschikbare stations zijn de gele en rode punten op de kaart.

Ga met uw muis naar het station om de naam te zien.

Klik dan om waarnemingen en weersverwachtingen te zien.

kaart wijzigen: klik op de groene knoppen met een zwart kruis om in te zoomen, op de groene knop met een streepje om uit te zoomen of op de groene pijlen voor aangrenzende kaarten.


METAR-TAF: